Fort Lee, Virginia
Current Conditions -  °F | °C
As of 3:15 AM on Monday 24 Nov 2014 (Local Time) from KPTB Reporting Station
Overcast Overcast  
Wind Chill: 67°   Ceiling: 900
Heat Index: 67°   Visibility: 10mi
Dew Point: 65°   Wind: 8mph
Humidity: 92%   Direction: 170°S
Pressure: 29.74"   Gusts: 16mph
Location:  37.24°N, 77.34°W
Report Text: KPTB 240815Z AUTO 17007G14KT 130V230 10SM OVC009 19/18 A2974 RMK AO2 T01940181
Loading
Personal Weather Stations






























Interactive Weather Map New forecast layout! Learn more

10-Day Weather Forecast

Advertisements
Track Severe Weather on mobile